sensor_id;sensor_type;location;lat;lon;timestamp;pressure;altitude;pressure_sealevel;temperature;humidity
28312;BME280;15572;48.810;9.148;2023-02-22T00:00:30;98043.66;;;4.31;100.00
28312;BME280;15572;48.810;9.148;2023-02-22T00:05:38;98043.94;;;4.20;100.00
28312;BME280;15572;48.810;9.148;2023-02-22T00:10:34;98044.41;;;4.15;100.00
28312;BME280;15572;48.810;9.148;2023-02-22T00:15:33;98042.03;;;4.12;100.00
28312;BME280;15572;48.810;9.148;2023-02-22T00:20:29;98042.84;;;4.05;100.00
28312;BME280;15572;48.810;9.148;2023-02-22T00:25:27;98035.47;;;3.99;100.00
28312;BME280;15572;48.810;9.148;2023-02-22T00:30:26;98038.78;;;4.01;100.00
28312;BME280;15572;48.810;9.148;2023-02-22T00:35:24;98022.06;;;3.99;100.00
28312;BME280;15572;48.810;9.148;2023-02-22T00:40:23;98026.91;;;3.95;100.00
28312;BME280;15572;48.810;9.148;2023-02-22T00:45:24;98028.06;;;3.93;100.00
28312;BME280;15572;48.810;9.148;2023-02-22T00:50:22;98020.72;;;3.95;100.00
28312;BME280;15572;48.810;9.148;2023-02-22T00:55:21;98018.31;;;3.84;100.00
28312;BME280;15572;48.810;9.148;2023-02-22T01:00:20;98012.59;;;3.87;100.00
28312;BME280;15572;48.810;9.148;2023-02-22T01:05:19;98016.63;;;3.91;100.00
28312;BME280;15572;48.810;9.148;2023-02-22T01:10:18;98007.75;;;3.90;100.00
28312;BME280;15572;48.810;9.148;2023-02-22T01:15:17;98000.56;;;3.91;100.00
28312;BME280;15572;48.810;9.148;2023-02-22T01:20:18;98001.03;;;3.78;100.00
28312;BME280;15572;48.810;9.148;2023-02-22T01:25:16;97991.47;;;3.75;100.00
28312;BME280;15572;48.810;9.148;2023-02-22T01:30:13;97994.69;;;3.79;100.00
28312;BME280;15572;48.810;9.148;2023-02-22T01:35:12;97989.97;;;3.81;100.00
28312;BME280;15572;48.810;9.148;2023-02-22T01:40:18;97984.97;;;3.78;100.00
28312;BME280;15572;48.810;9.148;2023-02-22T01:45:39;97987.41;;;3.71;100.00
28312;BME280;15572;48.810;9.148;2023-02-22T01:50:40;97978.81;;;3.60;100.00
28312;BME280;15572;48.810;9.148;2023-02-22T01:55:39;97966.28;;;3.60;100.00
28312;BME280;15572;48.810;9.148;2023-02-22T02:00:36;97961.25;;;3.57;100.00
28312;BME280;15572;48.810;9.148;2023-02-22T02:05:34;97954.31;;;3.47;100.00
28312;BME280;15572;48.810;9.148;2023-02-22T02:10:33;97948.44;;;3.43;100.00
28312;BME280;15572;48.810;9.148;2023-02-22T02:15:32;97946.28;;;3.47;100.00
28312;BME280;15572;48.810;9.148;2023-02-22T02:20:34;97948.78;;;3.48;100.00
28312;BME280;15572;48.810;9.148;2023-02-22T02:26:03;97941.09;;;3.45;100.00
28312;BME280;15572;48.810;9.148;2023-02-22T02:31:23;97932.25;;;3.53;100.00
28312;BME280;15572;48.810;9.148;2023-02-22T02:36:28;97932.44;;;3.51;100.00
28312;BME280;15572;48.810;9.148;2023-02-22T02:41:30;97926.44;;;3.57;100.00
28312;BME280;15572;48.810;9.148;2023-02-22T02:46:32;97919.91;;;3.60;100.00
28312;BME280;15572;48.810;9.148;2023-02-22T02:51:35;97917.59;;;3.65;100.00
28312;BME280;15572;48.810;9.148;2023-02-22T02:56:32;97914.63;;;3.68;100.00
28312;BME280;15572;48.810;9.148;2023-02-22T03:01:46;97912.09;;;3.66;100.00
28312;BME280;15572;48.810;9.148;2023-02-22T03:07:12;97902.38;;;3.65;100.00
28312;BME280;15572;48.810;9.148;2023-02-22T03:12:18;97897.03;;;3.65;100.00
28312;BME280;15572;48.810;9.148;2023-02-22T03:17:22;97886.16;;;3.67;100.00
28312;BME280;15572;48.810;9.148;2023-02-22T03:22:27;97885.16;;;3.68;100.00
28312;BME280;15572;48.810;9.148;2023-02-22T03:27:32;97887.38;;;3.72;100.00
28312;BME280;15572;48.810;9.148;2023-02-22T03:32:34;97882.50;;;3.68;100.00
28312;BME280;15572;48.810;9.148;2023-02-22T03:37:34;97875.44;;;3.67;100.00
28312;BME280;15572;48.810;9.148;2023-02-22T03:42:35;97874.91;;;3.63;100.00
28312;BME280;15572;48.810;9.148;2023-02-22T03:47:36;97876.09;;;3.61;100.00
28312;BME280;15572;48.810;9.148;2023-02-22T03:52:36;97868.53;;;3.56;100.00
28312;BME280;15572;48.810;9.148;2023-02-22T03:57:35;97881.22;;;3.46;100.00
28312;BME280;15572;48.810;9.148;2023-02-22T04:02:33;97881.22;;;3.46;100.00
28312;BME280;15572;48.810;9.148;2023-02-22T04:07:29;97880.53;;;3.44;100.00
28312;BME280;15572;48.810;9.148;2023-02-22T04:12:27;97883.00;;;3.37;100.00
28312;BME280;15572;48.810;9.148;2023-02-22T04:17:24;97880.50;;;3.36;100.00
28312;BME280;15572;48.810;9.148;2023-02-22T04:22:20;97877.59;;;3.29;100.00
28312;BME280;15572;48.810;9.148;2023-02-22T04:27:17;97876.75;;;3.29;100.00
28312;BME280;15572;48.810;9.148;2023-02-22T04:32:15;97874.38;;;3.26;100.00
28312;BME280;15572;48.810;9.148;2023-02-22T04:37:11;97872.75;;;3.25;100.00
28312;BME280;15572;48.810;9.148;2023-02-22T04:42:08;97875.72;;;3.22;100.00
28312;BME280;15572;48.810;9.148;2023-02-22T04:47:04;97871.53;;;3.19;100.00
28312;BME280;15572;48.810;9.148;2023-02-22T04:52:02;97866.81;;;3.13;100.00
28312;BME280;15572;48.810;9.148;2023-02-22T04:56:59;97868.06;;;3.01;100.00
28312;BME280;15572;48.810;9.148;2023-02-22T05:01:55;97862.66;;;2.93;100.00
28312;BME280;15572;48.810;9.148;2023-02-22T05:06:52;97864.13;;;2.87;100.00
28312;BME280;15572;48.810;9.148;2023-02-22T05:11:49;97858.78;;;2.87;100.00
28312;BME280;15572;48.810;9.148;2023-02-22T05:16:47;97858.94;;;2.86;100.00
28312;BME280;15572;48.810;9.148;2023-02-22T05:21:43;97849.06;;;2.86;100.00
28312;BME280;15572;48.810;9.148;2023-02-22T05:26:41;97848.75;;;2.89;100.00
28312;BME280;15572;48.810;9.148;2023-02-22T05:31:39;97852.75;;;2.85;100.00
28312;BME280;15572;48.810;9.148;2023-02-22T05:36:36;97848.72;;;2.81;100.00
28312;BME280;15572;48.810;9.148;2023-02-22T05:41:32;97840.13;;;2.78;100.00
28312;BME280;15572;48.810;9.148;2023-02-22T05:46:29;97844.03;;;2.83;100.00
28312;BME280;15572;48.810;9.148;2023-02-22T05:51:27;97840.22;;;2.86;100.00
28312;BME280;15572;48.810;9.148;2023-02-22T05:56:24;97837.53;;;2.86;100.00
28312;BME280;15572;48.810;9.148;2023-02-22T06:01:21;97832.53;;;2.83;100.00
28312;BME280;15572;48.810;9.148;2023-02-22T06:06:18;97829.16;;;2.81;100.00
28312;BME280;15572;48.810;9.148;2023-02-22T06:11:16;97834.41;;;2.90;100.00
28312;BME280;15572;48.810;9.148;2023-02-22T06:16:13;97827.72;;;2.94;100.00
28312;BME280;15572;48.810;9.148;2023-02-22T06:21:10;97835.59;;;2.96;100.00
28312;BME280;15572;48.810;9.148;2023-02-22T06:26:06;97851.66;;;2.96;100.00
28312;BME280;15572;48.810;9.148;2023-02-22T06:31:04;97855.41;;;2.85;100.00
28312;BME280;15572;48.810;9.148;2023-02-22T06:36:01;97851.25;;;2.83;100.00
28312;BME280;15572;48.810;9.148;2023-02-22T06:40:57;97855.94;;;2.89;100.00
28312;BME280;15572;48.810;9.148;2023-02-22T06:45:54;97864.91;;;2.80;100.00
28312;BME280;15572;48.810;9.148;2023-02-22T06:50:51;97860.16;;;2.74;100.00
28312;BME280;15572;48.810;9.148;2023-02-22T06:55:48;97869.47;;;2.87;100.00
28312;BME280;15572;48.810;9.148;2023-02-22T07:00:44;97870.81;;;3.09;100.00
28312;BME280;15572;48.810;9.148;2023-02-22T07:05:41;97864.50;;;3.18;100.00
28312;BME280;15572;48.810;9.148;2023-02-22T07:10:39;97879.59;;;3.27;100.00
28312;BME280;15572;48.810;9.148;2023-02-22T07:15:36;97878.31;;;3.39;100.00
28312;BME280;15572;48.810;9.148;2023-02-22T07:20:33;97887.06;;;3.50;100.00
28312;BME280;15572;48.810;9.148;2023-02-22T07:25:29;97890.31;;;3.61;100.00
28312;BME280;15572;48.810;9.148;2023-02-22T07:30:29;97883.50;;;3.75;100.00
28312;BME280;15572;48.810;9.148;2023-02-22T07:35:27;97891.59;;;3.91;100.00
28312;BME280;15572;48.810;9.148;2023-02-22T07:40:25;97885.81;;;4.12;100.00
28312;BME280;15572;48.810;9.148;2023-02-22T07:45:22;97896.75;;;4.35;100.00
28312;BME280;15572;48.810;9.148;2023-02-22T07:50:23;97893.78;;;4.54;100.00
28312;BME280;15572;48.810;9.148;2023-02-22T07:55:22;97900.16;;;4.77;100.00
28312;BME280;15572;48.810;9.148;2023-02-22T08:00:22;97891.44;;;4.99;100.00
28312;BME280;15572;48.810;9.148;2023-02-22T08:05:20;97897.94;;;5.13;100.00
28312;BME280;15572;48.810;9.148;2023-02-22T08:10:20;97896.09;;;5.38;100.00
28312;BME280;15572;48.810;9.148;2023-02-22T08:15:19;97886.78;;;5.57;100.00
28312;BME280;15572;48.810;9.148;2023-02-22T08:20:16;97876.31;;;5.78;100.00
28312;BME280;15572;48.810;9.148;2023-02-22T08:25:15;97873.56;;;6.02;100.00
28312;BME280;15572;48.810;9.148;2023-02-22T08:30:16;97876.63;;;6.30;100.00
28312;BME280;15572;48.810;9.148;2023-02-22T08:35:13;97885.06;;;6.50;100.00
28312;BME280;15572;48.810;9.148;2023-02-22T08:40:11;97882.72;;;6.69;100.00
28312;BME280;15572;48.810;9.148;2023-02-22T08:45:08;97880.31;;;6.97;100.00
28312;BME280;15572;48.810;9.148;2023-02-22T08:50:07;97879.28;;;7.21;100.00
28312;BME280;15572;48.810;9.148;2023-02-22T08:55:05;97881.72;;;7.45;100.00
28312;BME280;15572;48.810;9.148;2023-02-22T09:00:03;97887.75;;;7.77;100.00
28312;BME280;15572;48.810;9.148;2023-02-22T09:04:59;97879.38;;;8.01;100.00
28312;BME280;15572;48.810;9.148;2023-02-22T09:09:57;97880.47;;;8.36;94.35
28312;BME280;15572;48.810;9.148;2023-02-22T09:14:54;97881.25;;;8.51;93.97
28312;BME280;15572;48.810;9.148;2023-02-22T09:19:50;97874.19;;;8.71;91.92
28312;BME280;15572;48.810;9.148;2023-02-22T09:24:46;97873.94;;;8.87;89.78
28312;BME280;15572;48.810;9.148;2023-02-22T09:29:46;97871.81;;;9.04;87.93
28312;BME280;15572;48.810;9.148;2023-02-22T09:34:43;97876.81;;;9.28;87.10
28312;BME280;15572;48.810;9.148;2023-02-22T09:39:40;97871.63;;;9.61;85.19
28312;BME280;15572;48.810;9.148;2023-02-22T09:44:42;97864.72;;;9.87;86.03
28312;BME280;15572;48.810;9.148;2023-02-22T09:49:51;97857.41;;;10.22;85.52
28312;BME280;15572;48.810;9.148;2023-02-22T09:54:54;97858.94;;;10.44;84.46
28312;BME280;15572;48.810;9.148;2023-02-22T10:00:02;97856.06;;;10.52;83.89
28312;BME280;15572;48.810;9.148;2023-02-22T10:05:12;97860.25;;;10.74;82.49
28312;BME280;15572;48.810;9.148;2023-02-22T10:10:15;97851.75;;;10.77;79.17
28312;BME280;15572;48.810;9.148;2023-02-22T10:15:41;97853.41;;;11.11;79.80
28312;BME280;15572;48.810;9.148;2023-02-22T10:20:49;97849.25;;;11.35;79.76
28312;BME280;15572;48.810;9.148;2023-02-22T10:25:53;97846.75;;;11.47;79.46
28312;BME280;15572;48.810;9.148;2023-02-22T10:30:54;97838.63;;;11.53;79.32
28312;BME280;15572;48.810;9.148;2023-02-22T10:35:55;97840.25;;;11.67;79.19
28312;BME280;15572;48.810;9.148;2023-02-22T10:40:54;97838.78;;;11.91;78.02
28312;BME280;15572;48.810;9.148;2023-02-22T10:45:54;97835.97;;;12.11;77.21
28312;BME280;15572;48.810;9.148;2023-02-22T10:50:58;97827.16;;;12.29;76.39
28312;BME280;15572;48.810;9.148;2023-02-22T10:56:11;97822.44;;;12.49;75.47
28312;BME280;15572;48.810;9.148;2023-02-22T11:01:20;97816.75;;;12.57;75.76
28312;BME280;15572;48.810;9.148;2023-02-22T11:06:18;97815.84;;;12.70;71.39
28312;BME280;15572;48.810;9.148;2023-02-22T11:11:23;97824.16;;;12.75;68.63
28312;BME280;15572;48.810;9.148;2023-02-22T11:16:26;97812.47;;;12.74;68.37
28312;BME280;15572;48.810;9.148;2023-02-22T11:21:24;97816.31;;;12.91;68.34
28312;BME280;15572;48.810;9.148;2023-02-22T11:26:21;97807.81;;;13.13;67.42
28312;BME280;15572;48.810;9.148;2023-02-22T11:31:21;97792.09;;;13.39;67.01
28312;BME280;15572;48.810;9.148;2023-02-22T11:36:39;97790.22;;;13.95;63.70
28312;BME280;15572;48.810;9.148;2023-02-22T11:41:36;97796.81;;;13.87;64.37
28312;BME280;15572;48.810;9.148;2023-02-22T11:46:34;97776.19;;;13.79;64.05
28312;BME280;15572;48.810;9.148;2023-02-22T11:51:41;97777.09;;;13.91;64.26
28312;BME280;15572;48.810;9.148;2023-02-22T11:56:44;97770.75;;;13.79;65.65
28312;BME280;15572;48.810;9.148;2023-02-22T12:01:45;97765.84;;;13.70;65.61
28312;BME280;15572;48.810;9.148;2023-02-22T12:06:50;97764.09;;;13.75;65.04
28312;BME280;15572;48.810;9.148;2023-02-22T12:12:00;97763.56;;;13.85;64.20
28312;BME280;15572;48.810;9.148;2023-02-22T12:17:07;97751.94;;;13.60;65.85
28312;BME280;15572;48.810;9.148;2023-02-22T12:22:08;97748.44;;;13.34;66.81
28312;BME280;15572;48.810;9.148;2023-02-22T12:27:08;97747.25;;;13.48;66.14
28312;BME280;15572;48.810;9.148;2023-02-22T12:32:09;97747.22;;;14.03;64.21
28312;BME280;15572;48.810;9.148;2023-02-22T12:37:15;97737.34;;;14.39;62.67
28312;BME280;15572;48.810;9.148;2023-02-22T12:42:16;97729.22;;;14.32;61.92
28312;BME280;15572;48.810;9.148;2023-02-22T12:47:17;97743.63;;;14.39;61.39
28312;BME280;15572;48.810;9.148;2023-02-22T12:52:24;97733.69;;;14.45;60.29
28312;BME280;15572;48.810;9.148;2023-02-22T12:57:36;97728.81;;;14.88;58.67
28312;BME280;15572;48.810;9.148;2023-02-22T13:02:41;97726.69;;;15.60;57.75
28312;BME280;15572;48.810;9.148;2023-02-22T13:07:48;97738.41;;;15.84;56.41
28312;BME280;15572;48.810;9.148;2023-02-22T13:12:52;97726.63;;;16.07;56.50
28312;BME280;15572;48.810;9.148;2023-02-22T13:18:00;97724.44;;;16.09;54.65
28312;BME280;15572;48.810;9.148;2023-02-22T13:23:02;97721.06;;;16.02;54.97
28312;BME280;15572;48.810;9.148;2023-02-22T13:28:12;97718.13;;;16.20;53.56
28312;BME280;15572;48.810;9.148;2023-02-22T13:33:22;97710.72;;;16.32;53.91
28312;BME280;15572;48.810;9.148;2023-02-22T13:38:50;97707.25;;;16.08;54.59
28312;BME280;15572;48.810;9.148;2023-02-22T13:44:21;97713.34;;;16.55;54.09
28312;BME280;15572;48.810;9.148;2023-02-22T13:49:31;97706.22;;;16.26;53.62
28312;BME280;15572;48.810;9.148;2023-02-22T13:54:37;97705.03;;;15.93;53.72
28312;BME280;15572;48.810;9.148;2023-02-22T13:59:36;97706.91;;;15.30;54.82
28312;BME280;15572;48.810;9.148;2023-02-22T14:04:39;97703.59;;;15.04;56.85
28312;BME280;15572;48.810;9.148;2023-02-22T14:09:46;97706.19;;;14.88;58.24
28312;BME280;15572;48.810;9.148;2023-02-22T14:15:11;97706.28;;;14.58;60.13
28312;BME280;15572;48.810;9.148;2023-02-22T14:20:23;97706.59;;;14.20;61.68
28312;BME280;15572;48.810;9.148;2023-02-22T14:25:39;97702.22;;;14.19;62.25
28312;BME280;15572;48.810;9.148;2023-02-22T14:30:37;97704.09;;;14.18;63.26
28312;BME280;15572;48.810;9.148;2023-02-22T14:35:37;97709.91;;;14.22;64.30
28312;BME280;15572;48.810;9.148;2023-02-22T14:40:37;97703.94;;;14.31;63.19
28312;BME280;15572;48.810;9.148;2023-02-22T14:45:35;97701.38;;;14.37;62.59
28312;BME280;15572;48.810;9.148;2023-02-22T14:50:42;97697.16;;;14.34;62.83
28312;BME280;15572;48.810;9.148;2023-02-22T14:55:48;97697.59;;;14.19;63.43
28312;BME280;15572;48.810;9.148;2023-02-22T15:00:48;97706.97;;;13.94;64.60
28312;BME280;15572;48.810;9.148;2023-02-22T15:05:47;97705.16;;;13.87;65.07
28312;BME280;15572;48.810;9.148;2023-02-22T15:10:46;97704.47;;;13.92;64.68
28312;BME280;15572;48.810;9.148;2023-02-22T15:15:44;97694.13;;;13.82;64.98
28312;BME280;15572;48.810;9.148;2023-02-22T15:20:41;97697.97;;;13.75;65.66
28312;BME280;15572;48.810;9.148;2023-02-22T15:25:37;97705.78;;;13.71;66.66
28312;BME280;15572;48.810;9.148;2023-02-22T15:30:37;97699.66;;;13.76;66.34
28312;BME280;15572;48.810;9.148;2023-02-22T15:35:34;97698.88;;;13.69;66.35
28312;BME280;15572;48.810;9.148;2023-02-22T15:40:31;97698.38;;;13.60;67.92
28312;BME280;15572;48.810;9.148;2023-02-22T15:45:28;97702.38;;;13.39;69.43
28312;BME280;15572;48.810;9.148;2023-02-22T15:50:29;97705.31;;;13.38;70.38
28312;BME280;15572;48.810;9.148;2023-02-22T15:55:30;97704.72;;;13.36;71.12
28312;BME280;15572;48.810;9.148;2023-02-22T16:00:31;97700.25;;;13.23;72.67
28312;BME280;15572;48.810;9.148;2023-02-22T16:05:37;97705.75;;;13.17;72.57
28312;BME280;15572;48.810;9.148;2023-02-22T16:10:34;97702.00;;;13.11;73.15
28312;BME280;15572;48.810;9.148;2023-02-22T16:15:31;97708.03;;;12.95;73.62
28312;BME280;15572;48.810;9.148;2023-02-22T16:20:30;97713.75;;;12.87;74.16
28312;BME280;15572;48.810;9.148;2023-02-22T16:25:32;97711.75;;;12.76;75.26
28312;BME280;15572;48.810;9.148;2023-02-22T16:30:31;97712.06;;;12.61;76.00
28312;BME280;15572;48.810;9.148;2023-02-22T16:35:28;97715.31;;;12.45;77.08
28312;BME280;15572;48.810;9.148;2023-02-22T16:40:27;97715.22;;;12.33;77.37
28312;BME280;15572;48.810;9.148;2023-02-22T16:45:28;97718.00;;;12.20;77.96
28312;BME280;15572;48.810;9.148;2023-02-22T16:50:24;97713.25;;;12.09;78.40
28312;BME280;15572;48.810;9.148;2023-02-22T16:55:21;97714.75;;;12.05;78.88
28312;BME280;15572;48.810;9.148;2023-02-22T17:00:21;97721.69;;;11.94;79.27
28312;BME280;15572;48.810;9.148;2023-02-22T17:05:26;97726.09;;;11.89;80.14
28312;BME280;15572;48.810;9.148;2023-02-22T17:10:23;97728.00;;;11.81;80.91
28312;BME280;15572;48.810;9.148;2023-02-22T17:15:21;97720.31;;;11.72;81.44
28312;BME280;15572;48.810;9.148;2023-02-22T17:20:18;97737.41;;;11.66;83.12
28312;BME280;15572;48.810;9.148;2023-02-22T17:25:27;97747.50;;;11.52;80.52
28312;BME280;15572;48.810;9.148;2023-02-22T17:30:25;97756.28;;;11.41;79.50
28312;BME280;15572;48.810;9.148;2023-02-22T17:35:22;97762.78;;;11.27;79.72
28312;BME280;15572;48.810;9.148;2023-02-22T17:40:21;97764.66;;;11.20;79.21
28312;BME280;15572;48.810;9.148;2023-02-22T17:45:19;97766.97;;;11.10;79.22
28312;BME280;15572;48.810;9.148;2023-02-22T17:50:18;97767.19;;;10.95;80.21
28312;BME280;15572;48.810;9.148;2023-02-22T17:55:16;97774.88;;;10.72;81.70
28312;BME280;15572;48.810;9.148;2023-02-22T18:00:15;97772.34;;;10.44;85.19
28312;BME280;15572;48.810;9.148;2023-02-22T18:05:19;97778.75;;;10.23;85.87
28312;BME280;15572;48.810;9.148;2023-02-22T18:10:15;97778.44;;;9.98;88.42
28312;BME280;15572;48.810;9.148;2023-02-22T18:15:14;97773.41;;;9.82;89.91
28312;BME280;15572;48.810;9.148;2023-02-22T18:20:13;97777.13;;;9.81;88.88
28312;BME280;15572;48.810;9.148;2023-02-22T18:25:14;97775.00;;;9.70;90.49
28312;BME280;15572;48.810;9.148;2023-02-22T18:30:11;97771.66;;;9.68;90.89
28312;BME280;15572;48.810;9.148;2023-02-22T18:35:07;97766.06;;;9.69;91.73
28312;BME280;15572;48.810;9.148;2023-02-22T18:40:05;97765.19;;;9.62;91.59
28312;BME280;15572;48.810;9.148;2023-02-22T18:45:06;97759.31;;;9.52;92.48
28312;BME280;15572;48.810;9.148;2023-02-22T18:50:03;97761.34;;;9.44;94.64
28312;BME280;15572;48.810;9.148;2023-02-22T18:55:00;97755.31;;;9.42;94.79
28312;BME280;15572;48.810;9.148;2023-02-22T18:59:56;97763.41;;;9.42;94.55
28312;BME280;15572;48.810;9.148;2023-02-22T19:04:54;97763.22;;;9.43;94.55
28312;BME280;15572;48.810;9.148;2023-02-22T19:09:52;97760.56;;;9.56;93.55
28312;BME280;15572;48.810;9.148;2023-02-22T19:14:48;97766.84;;;9.63;93.70
28312;BME280;15572;48.810;9.148;2023-02-22T19:19:45;97761.25;;;9.65;93.30
28312;BME280;15572;48.810;9.148;2023-02-22T19:24:44;97762.50;;;9.69;92.38
28312;BME280;15572;48.810;9.148;2023-02-22T19:29:40;97761.91;;;9.73;94.17
28312;BME280;15572;48.810;9.148;2023-02-22T19:34:37;97767.53;;;9.79;94.62
28312;BME280;15572;48.810;9.148;2023-02-22T19:39:33;97770.91;;;9.87;93.44
28312;BME280;15572;48.810;9.148;2023-02-22T19:44:34;97764.72;;;9.93;93.27
28312;BME280;15572;48.810;9.148;2023-02-22T19:49:31;97776.94;;;9.89;93.44
28312;BME280;15572;48.810;9.148;2023-02-22T19:54:29;97778.38;;;9.85;93.92
28312;BME280;15572;48.810;9.148;2023-02-22T19:59:26;97779.88;;;9.88;94.40
28312;BME280;15572;48.810;9.148;2023-02-22T20:04:24;97790.03;;;9.86;94.46
28312;BME280;15572;48.810;9.148;2023-02-22T20:09:26;97782.09;;;9.78;95.17
28312;BME280;15572;48.810;9.148;2023-02-22T20:14:30;97786.47;;;9.79;95.03
28312;BME280;15572;48.810;9.148;2023-02-22T20:19:29;97785.47;;;9.86;97.08
28312;BME280;15572;48.810;9.148;2023-02-22T20:24:25;97777.97;;;9.88;96.44
28312;BME280;15572;48.810;9.148;2023-02-22T20:29:22;97782.75;;;9.86;97.99
28312;BME280;15572;48.810;9.148;2023-02-22T20:34:24;97783.75;;;9.79;98.49
28312;BME280;15572;48.810;9.148;2023-02-22T20:39:26;97787.03;;;9.67;100.00
28312;BME280;15572;48.810;9.148;2023-02-22T20:44:23;97789.88;;;9.53;99.31
28312;BME280;15572;48.810;9.148;2023-02-22T20:49:19;97796.06;;;9.47;100.00
28312;BME280;15572;48.810;9.148;2023-02-22T20:54:16;97783.53;;;9.33;100.00
28312;BME280;15572;48.810;9.148;2023-02-22T20:59:15;97800.34;;;9.28;100.00
28312;BME280;15572;48.810;9.148;2023-02-22T21:04:12;97801.75;;;9.24;100.00
28312;BME280;15572;48.810;9.148;2023-02-22T21:09:13;97797.16;;;9.24;100.00
28312;BME280;15572;48.810;9.148;2023-02-22T21:14:10;97802.97;;;8.94;100.00
28312;BME280;15572;48.810;9.148;2023-02-22T21:19:14;97792.09;;;8.80;100.00
28312;BME280;15572;48.810;9.148;2023-02-22T21:24:19;97799.22;;;8.67;100.00
28312;BME280;15572;48.810;9.148;2023-02-22T21:29:17;97801.53;;;8.49;100.00
28312;BME280;15572;48.810;9.148;2023-02-22T21:34:15;97806.13;;;8.33;100.00
28312;BME280;15572;48.810;9.148;2023-02-22T21:39:13;97801.25;;;8.22;100.00
28312;BME280;15572;48.810;9.148;2023-02-22T21:44:16;97800.91;;;8.11;100.00
28312;BME280;15572;48.810;9.148;2023-02-22T21:49:14;97808.38;;;7.94;100.00
28312;BME280;15572;48.810;9.148;2023-02-22T21:54:11;97801.69;;;7.90;100.00
28312;BME280;15572;48.810;9.148;2023-02-22T21:59:10;97797.06;;;7.84;100.00
28312;BME280;15572;48.810;9.148;2023-02-22T22:04:07;97794.28;;;7.77;100.00
28312;BME280;15572;48.810;9.148;2023-02-22T22:09:05;97800.72;;;7.61;100.00
28312;BME280;15572;48.810;9.148;2023-02-22T22:14:12;97796.72;;;7.57;100.00
28312;BME280;15572;48.810;9.148;2023-02-22T22:19:08;97799.31;;;7.51;100.00
28312;BME280;15572;48.810;9.148;2023-02-22T22:24:09;97793.00;;;7.44;100.00
28312;BME280;15572;48.810;9.148;2023-02-22T22:29:06;97790.22;;;7.37;100.00
28312;BME280;15572;48.810;9.148;2023-02-22T22:34:04;97796.38;;;7.31;100.00
28312;BME280;15572;48.810;9.148;2023-02-22T22:39:01;97787.72;;;7.21;100.00
28312;BME280;15572;48.810;9.148;2023-02-22T22:44:08;97787.91;;;7.19;100.00
28312;BME280;15572;48.810;9.148;2023-02-22T22:49:06;97791.59;;;7.04;100.00
28312;BME280;15572;48.810;9.148;2023-02-22T22:54:03;97790.28;;;7.00;100.00
28312;BME280;15572;48.810;9.148;2023-02-22T22:59:02;97788.63;;;6.99;100.00
28312;BME280;15572;48.810;9.148;2023-02-22T23:04:05;97798.34;;;6.85;100.00
28312;BME280;15572;48.810;9.148;2023-02-22T23:09:04;97792.41;;;6.90;100.00
28312;BME280;15572;48.810;9.148;2023-02-22T23:14:05;97787.78;;;6.98;100.00
28312;BME280;15572;48.810;9.148;2023-02-22T23:19:03;97791.78;;;7.02;100.00
28312;BME280;15572;48.810;9.148;2023-02-22T23:24:02;97792.78;;;7.01;100.00
28312;BME280;15572;48.810;9.148;2023-02-22T23:29:01;97787.50;;;6.93;100.00
28312;BME280;15572;48.810;9.148;2023-02-22T23:33:58;97793.19;;;6.98;100.00
28312;BME280;15572;48.810;9.148;2023-02-22T23:38:56;97791.16;;;7.15;100.00
28312;BME280;15572;48.810;9.148;2023-02-22T23:43:52;97789.31;;;7.30;100.00
28312;BME280;15572;48.810;9.148;2023-02-22T23:48:50;97795.91;;;7.42;100.00
28312;BME280;15572;48.810;9.148;2023-02-22T23:53:48;97794.28;;;7.48;100.00
28312;BME280;15572;48.810;9.148;2023-02-22T23:58:47;97794.13;;;7.49;100.00
